createdAt,value
2019-01-22T00:00:04.900Z,96.10
2019-01-22T00:01:08.991Z,92.82
2019-01-22T00:02:12.576Z,96.22
2019-01-22T00:03:16.261Z,92.92
2019-01-22T00:04:19.738Z,95.12
2019-01-22T00:05:23.349Z,101.87
2019-01-22T00:06:26.937Z,94.35
2019-01-22T00:07:30.436Z,92.40
2019-01-22T00:08:33.873Z,94.00
2019-01-22T00:09:37.413Z,101.47
2019-01-22T00:10:42.324Z,97.40
2019-01-22T00:11:46.014Z,100.58
2019-01-22T00:12:49.833Z,93.92
2019-01-22T00:13:53.336Z,96.78
2019-01-22T00:14:56.780Z,92.65
2019-01-22T00:16:00.351Z,100.87
2019-01-22T00:17:03.784Z,96.37
2019-01-22T00:18:07.305Z,98.62
2019-01-22T00:19:10.910Z,111.47
2019-01-22T00:20:15.677Z,102.87
2019-01-22T00:21:19.219Z,99.95
2019-01-22T00:22:22.735Z,104.78
2019-01-22T00:23:26.220Z,110.88
2019-01-22T00:24:29.715Z,102.72
2019-01-22T00:25:33.225Z,103.92
2019-01-22T00:26:36.868Z,102.07
2019-01-22T00:27:40.580Z,99.70
2019-01-22T00:28:44.195Z,99.58
2019-01-22T00:29:47.713Z,95.25
2019-01-22T00:30:51.146Z,104.72
2019-01-22T00:31:55.114Z,96.72
2019-01-22T00:32:58.602Z,94.65
2019-01-22T00:34:02.098Z,96.90
2019-01-22T00:35:06.275Z,101.25
2019-01-22T00:36:09.776Z,95.20
2019-01-22T00:37:13.274Z,107.90
2019-01-22T00:38:16.803Z,106.30
2019-01-22T00:39:20.303Z,96.78
2019-01-22T00:40:23.817Z,92.12
2019-01-22T00:41:27.312Z,110.60
2019-01-22T00:42:30.815Z,102.53
2019-01-22T00:43:34.553Z,99.20
2019-01-22T00:44:38.217Z,99.92
2019-01-22T00:45:41.716Z,97.95
2019-01-22T00:46:45.151Z,95.75
2019-01-22T00:47:48.590Z,104.53
2019-01-22T00:48:52.041Z,97.88
2019-01-22T00:49:55.486Z,104.65
2019-01-22T00:50:58.943Z,107.52
2019-01-22T00:52:02.386Z,102.40
2019-01-22T00:53:09.914Z,105.35
2019-01-22T00:54:11.081Z,96.80
2019-01-22T00:55:18.996Z,104.15
2019-01-22T00:56:22.491Z,98.72
2019-01-22T00:57:25.920Z,96.22
2019-01-22T00:58:29.352Z,96.53
2019-01-22T00:59:33.571Z,101.27
2019-01-22T01:00:37.479Z,101.35
2019-01-22T01:01:40.974Z,101.12
2019-01-22T01:02:44.554Z,116.15
2019-01-22T01:03:48.075Z,90.30
2019-01-22T01:04:51.588Z,96.70
2019-01-22T01:05:55.085Z,99.52
2019-01-22T01:06:58.739Z,94.95
2019-01-22T01:08:02.253Z,99.92
2019-01-22T01:09:07.862Z,112.65
2019-01-22T01:10:13.266Z,104.87
2019-01-22T01:11:16.770Z,102.32
2019-01-22T01:12:20.285Z,102.00
2019-01-22T01:13:23.946Z,98.40
2019-01-22T01:14:27.541Z,99.67
2019-01-22T01:15:31.224Z,96.37
2019-01-22T01:16:35.038Z,100.87
2019-01-22T01:17:38.560Z,100.50
2019-01-22T01:18:42.159Z,94.00
2019-01-22T01:19:45.750Z,101.38
2019-01-22T01:20:49.258Z,102.67
2019-01-22T01:21:52.697Z,103.78
2019-01-22T01:22:56.245Z,100.45
2019-01-22T01:23:59.828Z,105.97
2019-01-22T01:25:03.538Z,100.62
2019-01-22T01:26:06.976Z,105.03
2019-01-22T01:27:10.650Z,103.27
2019-01-22T01:28:14.091Z,106.70
2019-01-22T01:29:17.555Z,96.57
2019-01-22T01:30:23.223Z,104.07
2019-01-22T01:31:27.187Z,100.33
2019-01-22T01:32:30.698Z,106.52
2019-01-22T01:33:34.181Z,101.38
2019-01-22T01:34:37.719Z,104.97
2019-01-22T01:35:41.189Z,105.67
2019-01-22T01:36:44.731Z,110.45
2019-01-22T01:37:48.233Z,102.95
2019-01-22T01:38:51.700Z,96.00
2019-01-22T01:39:55.164Z,109.30
2019-01-22T01:40:58.598Z,101.07
2019-01-22T01:42:02.202Z,106.87
2019-01-22T01:43:05.786Z,109.03
2019-01-22T01:44:09.381Z,106.70
2019-01-22T01:45:13.059Z,97.67
2019-01-22T01:46:16.883Z,106.78
2019-01-22T01:47:20.405Z,102.70
2019-01-22T01:48:23.911Z,105.70
2019-01-22T01:49:27.389Z,102.35
2019-01-22T01:50:30.890Z,97.05
2019-01-22T01:51:34.400Z,101.35
2019-01-22T01:52:37.919Z,103.50
2019-01-22T01:53:41.529Z,99.70
2019-01-22T01:54:45.149Z,96.47
2019-01-22T01:55:48.745Z,104.12
2019-01-22T01:56:52.276Z,108.35
2019-01-22T01:57:55.805Z,105.50
2019-01-22T01:58:59.335Z,99.77
2019-01-22T02:00:03.007Z,107.83
2019-01-22T02:01:06.742Z,100.58
2019-01-22T02:02:13.168Z,105.37
2019-01-22T02:03:16.668Z,97.97
2019-01-22T02:04:20.132Z,104.97
2019-01-22T02:05:25.196Z,99.28
2019-01-22T02:06:28.717Z,103.22
2019-01-22T02:07:32.433Z,102.85
2019-01-22T02:08:35.842Z,108.05
2019-01-22T02:09:39.379Z,106.92
2019-01-22T02:10:42.957Z,109.87
2019-01-22T02:11:46.409Z,116.17
2019-01-22T02:12:55.692Z,110.25
2019-01-22T02:13:59.274Z,118.20
2019-01-22T02:15:02.961Z,116.80
2019-01-22T02:16:21.179Z,111.35
2019-01-22T02:17:39.592Z,107.30
2019-01-22T02:18:48.810Z,114.72
2019-01-22T02:19:58.201Z,98.97
2019-01-22T02:21:22.561Z,104.27
2019-01-22T02:22:34.922Z,98.55
2019-01-22T02:23:43.954Z,107.15
2019-01-22T02:24:53.088Z,101.97
2019-01-22T02:26:19.831Z,114.47
2019-01-22T02:27:32.340Z,100.27
2019-01-22T02:28:54.889Z,111.95
2019-01-22T02:30:17.365Z,106.30
2019-01-22T02:31:23.869Z,103.78
2019-01-22T02:32:30.382Z,100.62
2019-01-22T02:33:36.876Z,108.63
2019-01-22T02:34:52.098Z,109.60
2019-01-22T02:36:01.224Z,109.92
2019-01-22T02:37:37.513Z,101.72
2019-01-22T02:38:55.633Z,110.17
2019-01-22T02:40:07.649Z,103.20
2019-01-22T02:41:16.893Z,94.92
2019-01-22T02:42:28.986Z,95.65
2019-01-22T02:43:53.109Z,104.65
2019-01-22T02:45:18.506Z,102.25
2019-01-22T02:46:54.848Z,96.70
2019-01-22T02:48:01.327Z,102.00
2019-01-22T02:49:25.743Z,107.05
2019-01-22T02:50:40.689Z,99.47
2019-01-22T02:51:52.679Z,100.92
2019-01-22T02:52:59.204Z,113.85
2019-01-22T02:54:06.039Z,109.05
2019-01-22T02:55:18.026Z,111.03
2019-01-22T02:56:27.409Z,110.80
2019-01-22T02:57:48.647Z,105.78
2019-01-22T02:59:01.060Z,98.03
2019-01-22T03:00:29.857Z,92.67
2019-01-22T03:02:07.800Z,98.75
2019-01-22T03:03:35.118Z,100.58
2019-01-22T03:04:41.629Z,102.53
2019-01-22T03:06:12.245Z,111.12
2019-01-22T03:07:33.857Z,105.15
2019-01-22T03:08:59.850Z,96.40
2019-01-22T03:10:15.102Z,101.72
2019-01-22T03:11:37.980Z,107.55
2019-01-22T03:12:44.526Z,103.90
2019-01-22T03:14:07.122Z,99.90
2019-01-22T03:15:41.989Z,111.80
2019-01-22T03:16:48.518Z,97.20
2019-01-22T03:18:15.614Z,110.22
2019-01-22T03:19:33.771Z,104.97
2019-01-22T03:20:49.194Z,96.63
2019-01-22T03:21:55.923Z,104.03
2019-01-22T03:23:08.489Z,105.55
2019-01-22T03:24:37.256Z,106.07
2019-01-22T03:25:46.546Z,97.65
2019-01-22T03:27:08.186Z,109.05
2019-01-22T03:28:23.546Z,96.22
2019-01-22T03:29:44.959Z,102.78
2019-01-22T03:30:51.489Z,104.97
2019-01-22T03:32:15.640Z,115.50
2019-01-22T03:33:22.116Z,108.03
2019-01-22T03:34:31.205Z,98.78
2019-01-22T03:35:46.803Z,97.65
2019-01-22T03:37:23.161Z,102.78
2019-01-22T03:38:44.305Z,103.55
2019-01-22T03:39:50.804Z,102.60
2019-01-22T03:41:22.684Z,107.70
2019-01-22T03:42:34.996Z,100.58
2019-01-22T03:43:57.715Z,97.97
2019-01-22T03:45:16.072Z,104.78
2019-01-22T03:46:22.573Z,109.45
2019-01-22T03:47:53.098Z,109.25
2019-01-22T03:49:08.313Z,104.40
2019-01-22T03:50:32.942Z,99.67
2019-01-22T03:51:39.459Z,101.72
2019-01-22T03:52:45.959Z,102.27
2019-01-22T03:54:20.831Z,110.00
2019-01-22T03:55:45.315Z,102.02
2019-01-22T03:57:09.779Z,108.60
2019-01-22T03:58:13.292Z,103.40
2019-01-22T03:59:16.858Z,95.62
2019-01-22T04:00:22.318Z,101.67
2019-01-22T04:01:25.923Z,96.32
2019-01-22T04:02:30.514Z,98.82
2019-01-22T04:03:34.103Z,92.05
2019-01-22T04:04:37.535Z,102.90
2019-01-22T04:05:40.977Z,92.30
2019-01-22T04:06:45.030Z,96.72
2019-01-22T04:07:48.619Z,99.20
2019-01-22T04:08:53.612Z,106.78
2019-01-22T04:09:58.992Z,97.15
2019-01-22T04:11:04.282Z,99.25
2019-01-22T04:12:07.818Z,105.30
2019-01-22T04:13:11.440Z,94.70
2019-01-22T04:14:14.959Z,102.70
2019-01-22T04:15:21.519Z,103.60
2019-01-22T04:16:25.312Z,100.42
2019-01-22T04:17:28.953Z,101.25
2019-01-22T04:18:32.565Z,104.43
2019-01-22T04:19:36.142Z,103.53
2019-01-22T04:20:39.648Z,99.95
2019-01-22T04:21:43.228Z,106.17
2019-01-22T04:22:48.251Z,104.32
2019-01-22T04:24:01.454Z,108.90
2019-01-22T04:25:05.788Z,100.97
2019-01-22T04:26:28.695Z,106.27
2019-01-22T04:27:37.904Z,102.75
2019-01-22T04:29:09.685Z,106.25
2019-01-22T04:30:27.847Z,95.22
2019-01-22T04:31:37.012Z,101.33
2019-01-22T04:32:43.548Z,106.65
2019-01-22T04:34:12.149Z,113.28
2019-01-22T04:35:39.682Z,108.63
2019-01-22T04:36:58.195Z,103.60
2019-01-22T04:38:04.709Z,100.58
2019-01-22T04:39:16.815Z,98.00
2019-01-22T04:40:23.312Z,105.60
2019-01-22T04:41:48.806Z,99.77
2019-01-22T04:43:20.704Z,102.02
2019-01-22T04:44:47.480Z,113.22
2019-01-22T04:45:53.972Z,107.72
2019-01-22T04:47:12.544Z,115.50
2019-01-22T04:48:27.230Z,100.60
2019-01-22T04:49:33.801Z,105.70
2019-01-22T04:50:46.125Z,100.55
2019-01-22T04:51:55.594Z,111.72
2019-01-22T04:53:20.166Z,105.22
2019-01-22T04:54:32.466Z,103.53
2019-01-22T04:56:10.590Z,102.05
2019-01-22T04:57:25.835Z,108.25
2019-01-22T04:58:38.182Z,112.47
2019-01-22T04:59:44.689Z,108.50
2019-01-22T05:01:02.920Z,117.10
2019-01-22T05:02:18.119Z,114.03
2019-01-22T05:03:27.534Z,112.30
2019-01-22T05:04:36.725Z,107.27
2019-01-22T05:05:48.660Z,95.75
2019-01-22T05:07:15.650Z,114.85
2019-01-22T05:08:40.460Z,108.90
2019-01-22T05:10:03.156Z,101.87
2019-01-22T05:11:15.090Z,112.62
2019-01-22T05:12:33.674Z,103.38
2019-01-22T05:13:48.844Z,112.83
2019-01-22T05:15:17.311Z,91.75
2019-01-22T05:16:29.196Z,102.10
2019-01-22T05:17:41.471Z,104.05
2019-01-22T05:18:59.652Z,105.75
2019-01-22T05:20:06.138Z,101.45
2019-01-22T05:21:36.468Z,98.92
2019-01-22T05:22:45.710Z,96.72
2019-01-22T05:24:00.787Z,106.72
2019-01-22T05:25:10.048Z,91.67
2019-01-22T05:26:19.260Z,97.05
2019-01-22T05:27:34.310Z,103.58
2019-01-22T05:28:52.659Z,106.10
2019-01-22T05:30:13.108Z,107.35
2019-01-22T05:31:40.219Z,107.05
2019-01-22T05:32:52.415Z,109.17
2019-01-22T05:33:58.914Z,101.47
2019-01-22T05:35:17.112Z,122.35
2019-01-22T05:36:38.503Z,102.45
2019-01-22T05:37:59.548Z,104.87
2019-01-22T05:39:14.328Z,102.67
2019-01-22T05:40:37.196Z,114.10
2019-01-22T05:42:01.617Z,108.35
2019-01-22T05:43:13.362Z,118.13
2019-01-22T05:44:34.611Z,108.63
2019-01-22T05:46:00.365Z,103.53
2019-01-22T05:47:12.539Z,100.40
2019-01-22T05:48:19.006Z,121.45
2019-01-22T05:49:40.114Z,113.60
2019-01-22T05:50:49.465Z,108.42
2019-01-22T05:52:07.746Z,123.25
2019-01-22T05:53:25.878Z,130.05
2019-01-22T05:54:32.403Z,110.30
2019-01-22T05:55:53.605Z,96.90
2019-01-22T05:57:00.087Z,98.85
2019-01-22T05:58:37.777Z,110.05
2019-01-22T05:59:59.032Z,104.97
2019-01-22T06:01:05.650Z,110.15
2019-01-22T06:02:12.165Z,117.28
2019-01-22T06:03:27.743Z,117.70
2019-01-22T06:04:49.033Z,102.75
2019-01-22T06:05:59.837Z,111.85
2019-01-22T06:07:09.181Z,124.50
2019-01-22T06:08:33.555Z,98.97
2019-01-22T06:09:48.880Z,111.95
2019-01-22T06:10:55.378Z,113.28
2019-01-22T06:12:16.779Z,114.97
2019-01-22T06:13:28.972Z,129.40
2019-01-22T06:14:41.272Z,113.60
2019-01-22T06:15:47.822Z,116.42
2019-01-22T06:17:13.471Z,112.08
2019-01-22T06:18:20.046Z,114.70
2019-01-22T06:19:35.252Z,106.07
2019-01-22T06:20:59.527Z,117.57
2019-01-22T06:22:22.324Z,113.62
2019-01-22T06:23:46.570Z,120.17
2019-01-22T06:24:55.899Z,115.95
2019-01-22T06:26:11.054Z,135.55
2019-01-22T06:27:20.126Z,118.42
2019-01-22T06:28:35.143Z,113.25
2019-01-22T06:30:00.905Z,114.65
2019-01-22T06:31:22.629Z,118.28
2019-01-22T06:32:31.938Z,111.25
2019-01-22T06:33:38.434Z,103.75
2019-01-22T06:34:44.914Z,112.17
2019-01-22T06:36:09.382Z,114.62
2019-01-22T06:37:15.879Z,116.42
2019-01-22T06:38:22.373Z,112.80
2019-01-22T06:39:31.865Z,124.70
2019-01-22T06:40:54.546Z,102.53
2019-01-22T06:42:25.258Z,109.32
2019-01-22T06:43:31.813Z,119.13
2019-01-22T06:44:44.126Z,105.45
2019-01-22T06:45:50.660Z,124.95
2019-01-22T06:47:12.049Z,117.25
2019-01-22T06:48:39.182Z,118.15
2019-01-22T06:50:00.336Z,117.20
2019-01-22T06:51:21.049Z,124.30
2019-01-22T06:52:42.297Z,113.95
2019-01-22T06:53:57.081Z,115.80
2019-01-22T06:55:09.368Z,113.10
2019-01-22T06:56:39.841Z,122.92
2019-01-22T06:58:13.028Z,113.92
2019-01-22T06:59:22.357Z,113.40
2019-01-22T07:00:31.587Z,115.97
2019-01-22T07:01:46.532Z,107.12
2019-01-22T07:02:55.929Z,110.65
2019-01-22T07:04:02.582Z,114.75
2019-01-22T07:05:11.615Z,112.00
2019-01-22T07:06:34.801Z,118.22
2019-01-22T07:07:52.770Z,125.22
2019-01-22T07:09:21.555Z,113.83
2019-01-22T07:10:33.312Z,114.55
2019-01-22T07:11:42.298Z,113.80
2019-01-22T07:12:48.831Z,112.22
2019-01-22T07:14:00.982Z,126.27
2019-01-22T07:15:19.202Z,107.60
2019-01-22T07:16:28.239Z,108.10
2019-01-22T07:17:37.516Z,109.37
2019-01-22T07:18:55.965Z,125.47
2019-01-22T07:20:14.208Z,110.83
2019-01-22T07:21:32.559Z,101.27
2019-01-22T07:22:39.066Z,102.60
2019-01-22T07:23:45.638Z,107.12
2019-01-22T07:24:54.570Z,89.77
2019-01-22T07:26:09.864Z,108.75
2019-01-22T07:27:19.196Z,97.60
2019-01-22T07:28:25.769Z,113.68
2019-01-22T07:29:44.169Z,105.65
2019-01-22T07:31:06.057Z,98.27
2019-01-22T07:32:27.794Z,103.10
2019-01-22T07:33:52.020Z,112.85
2019-01-22T07:35:15.827Z,96.70
2019-01-22T07:36:47.723Z,104.00
2019-01-22T07:37:54.224Z,109.55
2019-01-22T07:39:09.077Z,96.45
2019-01-22T07:40:36.283Z,101.47
2019-01-22T07:41:57.460Z,105.72
2019-01-22T07:43:21.600Z,119.08
2019-01-22T07:44:33.979Z,127.90
2019-01-22T07:45:59.852Z,108.72
2019-01-22T07:47:25.642Z,96.57
2019-01-22T07:48:32.338Z,125.47
2019-01-22T07:49:41.845Z,134.07
2019-01-22T07:50:50.935Z,122.47
2019-01-22T07:52:06.167Z,116.42
2019-01-22T07:53:30.206Z,114.50
2019-01-22T07:55:03.554Z,105.03
2019-01-22T07:56:21.735Z,107.35
2019-01-22T07:57:39.873Z,104.25
2019-01-22T07:59:10.188Z,116.90
2019-01-22T08:00:19.397Z,118.72
2019-01-22T08:01:43.914Z,110.68
2019-01-22T08:02:59.284Z,119.67
2019-01-22T08:04:13.087Z,105.37
2019-01-22T08:05:30.007Z,109.65
2019-01-22T08:07:01.760Z,97.02
2019-01-22T08:08:27.846Z,107.05
2019-01-22T08:09:51.973Z,100.40
2019-01-22T08:11:01.270Z,105.37
2019-01-22T08:12:26.523Z,98.90
2019-01-22T08:13:33.014Z,104.12
2019-01-22T08:14:45.394Z,106.67
2019-01-22T08:16:00.696Z,111.17
2019-01-22T08:17:18.926Z,110.48
2019-01-22T08:18:30.652Z,105.17
2019-01-22T08:19:57.869Z,105.15
2019-01-22T08:21:06.860Z,106.78
2019-01-22T08:22:24.964Z,112.05
2019-01-22T08:23:55.078Z,96.17
2019-01-22T08:25:13.581Z,101.70
2019-01-22T08:26:37.917Z,106.15
2019-01-22T08:28:09.337Z,119.22
2019-01-22T08:29:21.140Z,117.15
2019-01-22T08:30:45.309Z,107.03
2019-01-22T08:32:10.817Z,101.45
2019-01-22T08:33:17.309Z,96.80
2019-01-22T08:34:54.930Z,105.27
2019-01-22T08:36:09.778Z,103.12
2019-01-22T08:37:37.108Z,105.00
2019-01-22T08:38:43.606Z,91.80
2019-01-22T08:40:01.604Z,103.02
2019-01-22T08:41:26.131Z,103.65
2019-01-22T08:42:35.539Z,115.03
2019-01-22T08:44:08.832Z,99.15
2019-01-22T08:45:27.338Z,122.20
2019-01-22T08:46:36.612Z,100.12
2019-01-22T08:48:00.816Z,99.32
2019-01-22T08:49:10.164Z,104.75
2019-01-22T08:50:16.640Z,103.20
2019-01-22T08:51:42.177Z,110.15
2019-01-22T08:52:57.424Z,90.40
2019-01-22T08:54:32.071Z,97.37
2019-01-22T08:55:38.560Z,104.45
2019-01-22T08:57:01.153Z,108.85
2019-01-22T08:58:18.790Z,108.15
2019-01-22T08:59:25.309Z,114.85
2019-01-22T09:00:37.224Z,106.45
2019-01-22T09:01:51.626Z,97.35
2019-01-22T09:03:17.266Z,108.32
2019-01-22T09:04:32.641Z,100.35
2019-01-22T09:05:39.133Z,112.55
2019-01-22T09:07:12.496Z,109.80
2019-01-22T09:08:18.979Z,104.47
2019-01-22T09:09:28.226Z,103.90
2019-01-22T09:11:01.879Z,107.63
2019-01-22T09:12:14.423Z,108.60
2019-01-22T09:13:29.562Z,112.97
2019-01-22T09:14:38.994Z,112.20
2019-01-22T09:16:01.786Z,117.67
2019-01-22T09:17:24.854Z,116.45
2019-01-22T09:18:40.752Z,113.57
2019-01-22T09:19:53.107Z,106.72
2019-01-22T09:21:05.561Z,107.30
2019-01-22T09:22:34.357Z,101.87
2019-01-22T09:23:46.627Z,105.70
2019-01-22T09:24:59.002Z,105.05
2019-01-22T09:26:17.082Z,98.58
2019-01-22T09:27:29.323Z,117.95
2019-01-22T09:28:44.655Z,104.70
2019-01-22T09:30:20.795Z,112.00
2019-01-22T09:31:27.277Z,116.77
2019-01-22T09:32:48.353Z,118.10
2019-01-22T09:33:54.868Z,112.25
2019-01-22T09:35:17.346Z,107.32
2019-01-22T09:36:47.363Z,101.70
2019-01-22T09:37:50.939Z,104.43
2019-01-22T09:38:54.468Z,110.12
2019-01-22T09:39:57.971Z,109.12
2019-01-22T09:41:01.544Z,107.05
2019-01-22T09:42:05.119Z,108.72
2019-01-22T09:43:08.713Z,102.70
2019-01-22T09:44:12.179Z,99.97
2019-01-22T09:45:15.760Z,105.03
2019-01-22T09:46:19.221Z,111.00
2019-01-22T09:47:22.658Z,111.15
2019-01-22T09:48:26.169Z,101.58
2019-01-22T09:49:29.711Z,107.03
2019-01-22T09:50:34.236Z,119.20
2019-01-22T09:51:37.813Z,99.62
2019-01-22T09:52:41.257Z,94.30
2019-01-22T09:53:44.687Z,101.25
2019-01-22T09:54:48.213Z,96.85
2019-01-22T09:55:51.675Z,112.25
2019-01-22T09:56:55.191Z,101.82
2019-01-22T09:57:58.634Z,102.05
2019-01-22T09:59:02.197Z,104.07
2019-01-22T10:00:08.730Z,100.10
2019-01-22T10:01:12.246Z,102.30
2019-01-22T10:02:15.755Z,90.28
2019-01-22T10:03:19.340Z,98.50
2019-01-22T10:04:22.819Z,88.75
2019-01-22T10:05:26.321Z,93.05
2019-01-22T10:06:29.890Z,97.57
2019-01-22T10:07:33.414Z,100.25
2019-01-22T10:08:36.945Z,91.87
2019-01-22T10:09:40.421Z,101.78
2019-01-22T10:10:43.956Z,98.92
2019-01-22T10:11:47.523Z,92.42
2019-01-22T10:12:51.100Z,97.10
2019-01-22T10:13:54.824Z,101.00
2019-01-22T10:14:58.388Z,94.13
2019-01-22T10:16:02.013Z,93.80
2019-01-22T10:17:05.517Z,100.58
2019-01-22T10:18:09.120Z,93.33
2019-01-22T10:19:12.644Z,90.35
2019-01-22T10:20:23.699Z,101.27
2019-01-22T10:21:27.277Z,90.60
2019-01-22T10:22:30.778Z,86.72
2019-01-22T10:23:34.359Z,89.28
2019-01-22T10:24:37.906Z,80.57
2019-01-22T10:25:41.410Z,80.97
2019-01-22T10:26:44.921Z,81.63
2019-01-22T10:27:48.583Z,88.75
2019-01-22T10:28:52.214Z,80.47
2019-01-22T10:29:55.745Z,85.85
2019-01-22T10:30:59.239Z,89.25
2019-01-22T10:32:02.716Z,80.45
2019-01-22T10:33:06.300Z,84.42
2019-01-22T10:34:09.854Z,86.12
2019-01-22T10:35:14.255Z,84.42
2019-01-22T10:36:17.932Z,78.85
2019-01-22T10:37:21.426Z,73.30
2019-01-22T10:38:24.824Z,87.05
2019-01-22T10:39:28.279Z,71.50
2019-01-22T10:40:31.797Z,78.17
2019-01-22T10:41:35.313Z,83.78
2019-01-22T10:42:38.745Z,80.50
2019-01-22T10:43:42.164Z,83.20
2019-01-22T10:44:45.615Z,96.72
2019-01-22T10:45:49.080Z,76.00
2019-01-22T10:46:52.614Z,85.32
2019-01-22T10:47:56.116Z,80.25
2019-01-22T10:48:59.744Z,72.37
2019-01-22T10:50:04.474Z,76.15
2019-01-22T10:51:07.905Z,77.92
2019-01-22T10:52:11.339Z,81.75
2019-01-22T10:53:14.781Z,80.25
2019-01-22T10:54:18.295Z,79.85
2019-01-22T10:55:21.902Z,87.30
2019-01-22T10:56:25.371Z,81.65
2019-01-22T10:57:28.882Z,81.28
2019-01-22T10:58:32.468Z,80.00
2019-01-22T10:59:35.934Z,74.27
2019-01-22T11:00:39.732Z,84.00
2019-01-22T11:01:43.240Z,76.57
2019-01-22T11:02:46.674Z,73.37
2019-01-22T11:03:50.261Z,77.72
2019-01-22T11:04:53.869Z,79.85
2019-01-22T11:05:57.402Z,75.47
2019-01-22T11:07:00.850Z,70.03
2019-01-22T11:08:04.606Z,78.17
2019-01-22T11:09:08.495Z,78.52
2019-01-22T11:10:12.074Z,74.20
2019-01-22T11:11:15.599Z,78.07
2019-01-22T11:12:19.072Z,75.92
2019-01-22T11:13:22.520Z,74.58
2019-01-22T11:14:26.018Z,78.57
2019-01-22T11:15:29.540Z,73.22
2019-01-22T11:16:33.066Z,75.92
2019-01-22T11:17:36.502Z,74.15
2019-01-22T11:18:40.625Z,76.35
2019-01-22T11:19:44.072Z,79.05
2019-01-22T11:20:47.583Z,74.90
2019-01-22T11:21:51.044Z,78.35
2019-01-22T11:22:54.638Z,72.50
2019-01-22T11:23:58.330Z,82.55
2019-01-22T11:25:01.861Z,75.57
2019-01-22T11:26:05.428Z,74.75
2019-01-22T11:27:08.926Z,75.22
2019-01-22T11:28:12.515Z,74.37
2019-01-22T11:29:15.960Z,82.53
2019-01-22T11:30:22.433Z,88.12
2019-01-22T11:31:25.939Z,79.77
2019-01-22T11:32:29.383Z,91.12
2019-01-22T11:33:33.546Z,80.67
2019-01-22T11:34:37.097Z,76.15
2019-01-22T11:35:40.598Z,69.47
2019-01-22T11:36:44.186Z,79.45
2019-01-22T11:37:47.701Z,78.00
2019-01-22T11:38:51.391Z,76.55
2019-01-22T11:39:54.825Z,70.60
2019-01-22T11:40:58.347Z,77.47
2019-01-22T11:42:01.874Z,72.35
2019-01-22T11:43:05.546Z,74.60
2019-01-22T11:44:09.048Z,70.40
2019-01-22T11:45:12.723Z,79.62
2019-01-22T11:46:16.307Z,70.90
2019-01-22T11:47:19.829Z,74.37
2019-01-22T11:48:23.263Z,70.75
2019-01-22T11:49:26.772Z,72.87
2019-01-22T11:50:30.223Z,75.80
2019-01-22T11:51:33.646Z,76.92
2019-01-22T11:52:37.167Z,80.97
2019-01-22T11:53:40.752Z,83.47
2019-01-22T11:54:44.196Z,75.40
2019-01-22T11:55:50.565Z,70.37
2019-01-22T11:56:52.903Z,72.03
2019-01-22T11:57:56.496Z,70.90
2019-01-22T11:59:00.073Z,76.72
2019-01-22T12:00:05.528Z,76.42
2019-01-22T12:01:09.122Z,70.97
2019-01-22T12:02:12.712Z,79.03
2019-01-22T12:03:16.294Z,71.02
2019-01-22T12:04:19.861Z,68.80
2019-01-22T12:05:23.310Z,71.33
2019-01-22T12:06:26.780Z,72.17
2019-01-22T12:07:30.248Z,75.72
2019-01-22T12:08:33.719Z,61.37
2019-01-22T12:09:37.155Z,72.70
2019-01-22T12:10:40.660Z,71.00
2019-01-22T12:11:44.097Z,80.30
2019-01-22T12:12:47.600Z,66.12
2019-01-22T12:13:54.058Z,70.37
2019-01-22T12:14:56.301Z,76.12
2019-01-22T12:15:59.816Z,62.62
2019-01-22T12:17:03.254Z,73.45
2019-01-22T12:18:06.844Z,75.47
2019-01-22T12:19:10.383Z,72.55
2019-01-22T12:20:19.568Z,74.90
2019-01-22T12:21:23.080Z,77.17
2019-01-22T12:22:26.579Z,77.12
2019-01-22T12:23:30.102Z,80.83
2019-01-22T12:24:33.607Z,89.95
2019-01-22T12:25:37.025Z,88.45
2019-01-22T12:26:40.485Z,83.37
2019-01-22T12:27:43.996Z,73.02
2019-01-22T12:28:47.495Z,72.27
2019-01-22T12:29:50.951Z,86.12
2019-01-22T12:30:54.657Z,93.20
2019-01-22T12:31:58.170Z,77.87
2019-01-22T12:33:01.672Z,74.50
2019-01-22T12:34:05.261Z,79.72
2019-01-22T12:35:11.333Z,71.87
2019-01-22T12:36:14.847Z,61.08
2019-01-22T12:37:18.368Z,62.03
2019-01-22T12:38:21.793Z,70.28
2019-01-22T12:39:25.256Z,73.50
2019-01-22T12:40:29.143Z,66.40
2019-01-22T12:41:32.582Z,63.85
2019-01-22T12:42:36.084Z,66.30
2019-01-22T12:43:39.595Z,68.75
2019-01-22T12:44:43.108Z,59.13
2019-01-22T12:45:46.601Z,70.70
2019-01-22T12:46:50.071Z,71.87
2019-01-22T12:47:53.601Z,64.12
2019-01-22T12:48:57.045Z,68.62
2019-01-22T12:50:00.496Z,66.62
2019-01-22T12:51:04.071Z,68.10
2019-01-22T12:52:07.579Z,60.05
2019-01-22T12:53:11.192Z,66.07
2019-01-22T12:54:14.701Z,59.70
2019-01-22T12:55:18.407Z,64.60
2019-01-22T12:56:21.839Z,72.05
2019-01-22T12:57:25.279Z,64.80
2019-01-22T12:58:28.716Z,64.12
2019-01-22T12:59:32.246Z,69.77
2019-01-22T13:00:37.788Z,67.03
2019-01-22T13:01:41.214Z,68.85
2019-01-22T13:02:44.723Z,61.73
2019-01-22T13:03:48.184Z,65.15
2019-01-22T13:04:51.682Z,68.25
2019-01-22T13:05:56.162Z,60.50
2019-01-22T13:06:59.730Z,66.25
2019-01-22T13:08:03.311Z,63.83
2019-01-22T13:09:08.002Z,71.10
2019-01-22T13:10:11.571Z,62.08
2019-01-22T13:11:15.072Z,69.45
2019-01-22T13:12:18.510Z,62.40
2019-01-22T13:13:22.009Z,63.92
2019-01-22T13:14:25.466Z,61.75
2019-01-22T13:15:28.981Z,99.20
2019-01-22T13:16:32.526Z,82.05
2019-01-22T13:17:36.041Z,80.87
2019-01-22T13:18:39.538Z,63.68
2019-01-22T13:19:42.999Z,53.60
2019-01-22T13:20:46.653Z,54.60
2019-01-22T13:21:50.084Z,55.15
2019-01-22T13:22:53.513Z,69.62
2019-01-22T13:23:57.018Z,67.47
2019-01-22T13:25:00.474Z,61.33
2019-01-22T13:26:04.055Z,56.88
2019-01-22T13:27:07.487Z,61.18
2019-01-22T13:28:11.088Z,64.15
2019-01-22T13:29:14.611Z,61.80
2019-01-22T13:30:24.858Z,61.15
2019-01-22T13:31:28.335Z,62.65
2019-01-22T13:32:31.837Z,75.47
2019-01-22T13:33:35.341Z,61.58
2019-01-22T13:34:38.792Z,59.35
2019-01-22T13:35:42.363Z,70.22
2019-01-22T13:36:45.798Z,65.87
2019-01-22T13:37:49.486Z,68.90
2019-01-22T13:38:52.923Z,69.25
2019-01-22T13:39:56.396Z,61.13
2019-01-22T13:40:59.831Z,65.30
2019-01-22T13:42:03.321Z,71.70
2019-01-22T13:43:06.899Z,64.00
2019-01-22T13:44:10.333Z,67.53
2019-01-22T13:45:28.554Z,67.17
2019-01-22T13:46:31.984Z,61.10
2019-01-22T13:47:35.483Z,63.45
2019-01-22T13:48:39.139Z,67.25
2019-01-22T13:49:42.672Z,61.30
2019-01-22T13:50:46.099Z,69.53
2019-01-22T13:51:49.536Z,68.90
2019-01-22T13:52:53.122Z,75.30
2019-01-22T13:53:56.640Z,62.95
2019-01-22T13:55:00.190Z,68.75
2019-01-22T13:56:03.785Z,65.25
2019-01-22T13:57:07.383Z,76.05
2019-01-22T13:58:10.908Z,68.65
2019-01-22T13:59:14.359Z,74.82
2019-01-22T14:00:20.342Z,71.33
2019-01-22T14:01:23.864Z,67.42
2019-01-22T14:02:27.365Z,70.17
2019-01-22T14:03:30.863Z,73.28
2019-01-22T14:04:34.391Z,69.53
2019-01-22T14:05:38.035Z,66.30
2019-01-22T14:06:41.477Z,67.82
2019-01-22T14:07:45.050Z,71.87
2019-01-22T14:08:48.485Z,67.15
2019-01-22T14:09:51.964Z,66.60
2019-01-22T14:10:55.414Z,66.50
2019-01-22T14:11:58.921Z,76.28
2019-01-22T14:13:02.353Z,69.25
2019-01-22T14:14:05.945Z,64.20
2019-01-22T14:15:12.751Z,70.97
2019-01-22T14:16:16.250Z,76.65
2019-01-22T14:17:19.729Z,65.28
2019-01-22T14:18:23.273Z,65.17
2019-01-22T14:19:26.816Z,78.28
2019-01-22T14:20:30.344Z,72.65
2019-01-22T14:21:33.769Z,72.92
2019-01-22T14:22:37.204Z,76.50
2019-01-22T14:23:40.653Z,65.83
2019-01-22T14:24:44.181Z,68.85
2019-01-22T14:25:47.692Z,70.12
2019-01-22T14:26:52.407Z,75.50
2019-01-22T14:27:55.926Z,70.70
2019-01-22T14:28:59.363Z,67.30
2019-01-22T14:30:02.955Z,67.87
2019-01-22T14:31:06.543Z,68.80
2019-01-22T14:32:10.139Z,63.83
2019-01-22T14:33:13.595Z,73.62
2019-01-22T14:34:17.061Z,77.17
2019-01-22T14:35:20.666Z,67.15
2019-01-22T14:36:24.162Z,64.55
2019-01-22T14:37:27.678Z,66.60
2019-01-22T14:38:31.119Z,66.02
2019-01-22T14:39:34.572Z,59.90